Time;durP1;ratioP1;P1;durP2;ratioP2;P2;SDS_P1;SDS_P2;PMS_P1;PMS_P2;Temp;Humidity;BMP_temperature;BMP_pressure;BME280_temperature;BME280_humidity;BME280_pressure;Samples;Min_cycle;Max_cycle;Signal;HPM_P1;HPM_P2
2023/05/19 00:00:37;;;;;;;0.90;0.70;;;;;;;18.90;64.84;98758.53;2088481;28;20049;-48
2023/05/19 00:01:42;;;;;;;0.75;0.75;;;;;;;18.90;64.60;98758.53;2084985;28;20460;-51
2023/05/19 00:02:44;;;;;;;0.75;0.63;;;;;;;18.89;64.99;98757.69;2084871;28;20095;-47
2023/05/19 00:03:51;;;;;;;0.68;0.65;;;;;;;18.89;64.80;98762.25;2086945;28;20045;-48
2023/05/19 00:04:52;;;;;;;1.08;0.70;;;;;;;18.88;64.93;98758.72;2084950;28;20603;-46
2023/05/19 00:05:54;;;;;;;;;;;;;;;18.79;64.95;98756.41;2086056;28;20477;-49
2023/05/19 00:06:59;;;;;;;0.90;0.80;;;;;;;18.83;64.90;98761.16;2085916;28;19928;-49
2023/05/19 00:08:01;;;;;;;1.17;0.60;;;;;;;18.85;64.76;98761.81;2083971;28;20057;-52
2023/05/19 00:09:04;;;;;;;0.93;0.80;;;;;;;18.88;64.80;98756.03;2082207;28;20105;-50
2023/05/19 00:10:07;;;;;;;0.75;0.75;;;;;;;18.88;64.71;98756.03;2079493;28;20122;-49
2023/05/19 00:11:08;;;;;;;0.90;0.50;;;;;;;18.88;64.49;98756.03;2086946;28;20751;-47
2023/05/19 00:12:11;;;;;;;0.75;0.73;;;;;;;18.88;64.56;98757.88;2086927;28;20052;-46
2023/05/19 00:13:13;;;;;;;0.85;0.70;;;;;;;18.89;64.83;98751.50;2081778;28;20085;-49
2023/05/19 00:14:14;;;;;;;0.98;0.73;;;;;;;18.88;64.53;98745.28;2085428;28;20052;-47
2023/05/19 00:15:16;;;;;;;2.08;1.00;;;;;;;18.88;64.69;98749.81;2084510;28;20497;-48
2023/05/19 00:16:18;;;;;;;0.93;0.70;;;;;;;18.88;64.75;98750.66;2080899;28;20084;-48
2023/05/19 00:17:20;;;;;;;0.90;0.63;;;;;;;18.88;64.44;98750.66;2079285;28;20120;-48
2023/05/19 00:18:21;;;;;;;1.00;0.88;;;;;;;18.90;64.63;98750.47;2083705;28;20097;-47
2023/05/19 00:19:24;;;;;;;1.13;0.80;;;;;;;18.90;64.50;98747.78;2082948;28;20080;-48
2023/05/19 00:20:24;;;;;;;0.60;0.60;;;;;;;18.90;64.75;98751.28;2085150;28;21773;-47
2023/05/19 00:21:26;;;;;;;;;;;;;;;18.77;65.09;98751.22;2083672;28;20052;-48
2023/05/19 00:22:28;;;;;;;1.38;0.68;;;;;;;18.79;64.87;98746.50;2086250;28;19963;-50
2023/05/19 00:23:30;;;;;;;1.60;0.50;;;;;;;18.83;64.66;98750.41;2084361;28;20045;-50
2023/05/19 00:24:30;;;;;;;0.52;0.50;;;;;;;18.86;64.62;98747.34;2087027;28;20048;-46
2023/05/19 00:25:32;;;;;;;;;;;;;;;18.75;64.88;98746.06;2085907;28;20122;-47
2023/05/19 00:26:32;;;;;;;1.25;0.95;;;;;;;18.80;64.78;98747.31;2088088;28;19924;-48
2023/05/19 00:27:34;;;;;;;;;;;;;;;18.72;65.05;98751.81;2083159;28;20044;-47
2023/05/19 00:28:35;;;;;;;0.90;0.60;;;;;;;18.79;64.89;98751.88;2075445;28;19947;-53
2023/05/19 00:29:36;;;;;;;;;;;;;;;18.72;64.96;98748.28;2077733;28;20048;-46
2023/05/19 00:30:37;;;;;;;0.57;0.50;;;;;;;18.78;65.09;98744.00;2081434;28;19925;-49
2023/05/19 00:31:38;;;;;;;1.02;0.50;;;;;;;18.81;64.83;98752.50;2081662;28;20165;-51
2023/05/19 00:32:39;;;;;;;0.90;0.65;;;;;;;18.84;64.67;98744.03;2078856;28;20044;-52
2023/05/19 00:33:41;;;;;;;;;;;;;;;18.75;65.23;98745.25;2086409;28;20509;-47
2023/05/19 00:34:41;;;;;;;1.00;0.70;;;;;;;18.78;64.82;98744.84;2088171;28;19921;-50
2023/05/19 00:35:43;;;;;;;;;;;;;;;18.72;65.20;98742.91;2087586;28;20052;-50
2023/05/19 00:36:44;;;;;;;1.65;0.75;;;;;;;18.78;65.04;98741.31;2086554;28;19924;-49
2023/05/19 00:37:47;;;;;;;;;;;;;;;18.73;64.66;98747.28;2088512;28;20594;-50
2023/05/19 00:38:49;;;;;;;3.35;0.80;;;;;;;18.76;64.80;98738.84;2086042;28;19928;-49
2023/05/19 00:39:51;;;;;;;0.75;0.70;;;;;;;18.82;64.77;98742.56;2085373;28;20433;-45
2023/05/19 00:40:52;;;;;;;0.50;0.50;;;;;;;18.87;64.66;98753.56;2083103;28;20120;-50
2023/05/19 00:41:53;;;;;;;;;;;;;;;18.74;64.94;98743.56;2086038;28;20055;-45
2023/05/19 00:42:54;;;;;;;1.88;1.05;;;;;;;18.78;64.77;98744.84;2080881;28;19920;-50
2023/05/19 00:43:55;;;;;;;;;;;;;;;18.71;64.93;98752.84;2084194;28;20098;-48
2023/05/19 00:44:56;;;;;;;0.75;0.75;;;;;;;18.75;64.86;98745.25;2086766;28;19925;-48
2023/05/19 00:45:58;;;;;;;;;;;;;;;18.71;65.31;98749.31;2079958;28;20056;-48
2023/05/19 00:46:58;;;;;;;0.68;0.65;;;;;;;18.75;64.88;98746.06;2086378;28;19921;-44
2023/05/19 00:48:00;;;;;;;;;;;;;;;18.69;64.92;98743.31;2081468;28;20094;-50
2023/05/19 00:49:00;;;;;;;0.52;0.52;;;;;;;18.73;65.14;98740.03;2087615;28;19924;-48
2023/05/19 00:50:02;;;;;;;;;;;;;;;18.69;64.96;98740.63;2089351;28;20878;-48
2023/05/19 00:51:05;;;;;;;1.38;1.27;;;;;;;18.74;64.82;98730.97;2086071;28;19928;-48
2023/05/19 00:52:07;;;;;;;0.63;0.63;;;;;;;18.79;64.94;98733.06;2088608;28;22313;-44
2023/05/19 00:53:09;;;;;;;1.27;0.95;;;;;;;18.83;64.47;98742.34;2085447;28;20153;-51
2023/05/19 00:54:11;;;;;;;0.68;0.50;;;;;;;18.86;64.62;98741.13;2088701;28;20398;-49
2023/05/19 00:55:12;;;;;;;1.48;0.80;;;;;;;18.86;64.61;98735.75;2084817;28;20106;-50
2023/05/19 00:56:15;;;;;;;1.10;0.73;;;;;;;18.87;64.53;98743.63;2088664;28;20472;-44
2023/05/19 00:57:16;;;;;;;1.58;0.70;;;;;;;18.86;64.53;98741.97;2089665;28;21172;-53
2023/05/19 00:58:18;;;;;;;;;;;;;;;18.78;64.55;98744.84;2083351;28;20124;-49
2023/05/19 00:59:19;;;;;;;0.90;0.65;;;;;;;18.80;64.67;98742.75;2082951;28;19974;-50
2023/05/19 01:00:20;;;;;;;;;;;;;;;18.71;64.96;98744.78;2081077;28;20087;-46
2023/05/19 01:01:21;;;;;;;1.23;0.70;;;;;;;18.75;64.98;98739.88;2089425;28;19928;-47
2023/05/19 01:02:23;;;;;;;;;;;;;;;18.69;64.91;98737.94;2089574;28;20214;-45
2023/05/19 01:03:24;;;;;;;0.60;0.60;;;;;;;18.73;64.79;98742.72;2085696;28;19956;-45
2023/05/19 01:04:25;;;;;;;1.17;0.70;;;;;;;18.78;64.72;98741.31;2087770;28;20060;-45
2023/05/19 01:05:26;;;;;;;1.88;0.80;;;;;;;18.78;64.52;98742.16;2086372;28;20084;-52
2023/05/19 01:06:28;;;;;;;;;;;;;;;18.71;64.81;98743.94;2090628;28;20052;-50
2023/05/19 01:07:29;;;;;;;0.55;0.52;;;;;;;18.77;64.72;98739.66;2089672;28;19924;-51
2023/05/19 01:08:33;;;;;;;;;;;;;;;18.69;65.11;98740.63;2088983;28;20045;-51
2023/05/19 01:09:33;;;;;;;0.85;0.85;;;;;;;18.75;64.83;98740.69;2088392;28;19921;-46
2023/05/19 01:10:35;;;;;;;;;;;;;;;18.69;65.00;98741.47;2088295;28;20050;-45
2023/05/19 01:11:35;;;;;;;0.88;0.50;;;;;;;18.74;64.79;98743.56;2086787;28;19924;-47
2023/05/19 01:12:37;;;;;;;;;;;;;;;18.67;65.10;98732.78;2091167;28;20097;-45
2023/05/19 01:13:38;;;;;;;0.50;0.50;;;;;;;18.73;64.62;98740.03;2082814;28;20018;-49
2023/05/19 01:14:40;;;;;;;1.00;0.90;;;;;;;18.79;64.85;98741.13;2084526;28;20048;-52
2023/05/19 01:15:57;;;;;;;0.77;0.60;;;;;;;18.80;64.28;98742.75;2083885;28;20139;-45
2023/05/19 01:17:05;;;;;;;0.60;0.50;;;;;;;18.81;64.60;98746.31;2083652;28;20603;-50
2023/05/19 01:18:13;;;;;;;0.50;0.50;;;;;;;18.84;64.56;98748.59;2083721;28;20538;-49
2023/05/19 01:19:37;;;;;;;1.95;0.95;;;;;;;18.82;64.65;98740.72;2084124;28;20080;-48
2023/05/19 01:20:41;;;;;;;0.63;0.63;;;;;;;18.80;64.50;98741.94;2081768;28;20041;-51
2023/05/19 01:22:27;;;;;;;0.75;0.45;;;;;;;18.77;64.64;98740.47;2083004;28;20087;-48
2023/05/19 01:23:39;;;;;;;1.42;0.95;;;;;;;18.78;64.69;98741.31;2084476;28;20141;-51
2023/05/19 01:25:09;;;;;;;1.15;1.05;;;;;;;18.75;64.63;98745.25;2088171;28;20055;-45
2023/05/19 01:26:50;;;;;;;0.68;0.63;;;;;;;18.74;64.59;98740.88;2088470;28;20048;-49
2023/05/19 01:28:09;;;;;;;1.27;0.60;;;;;;;18.73;64.53;98747.28;2082020;28;20052;-46
2023/05/19 01:29:31;;;;;;;0.95;0.65;;;;;;;18.73;64.54;98740.03;2085846;28;20054;-45
2023/05/19 01:30:38;;;;;;;0.80;0.80;;;;;;;18.78;64.58;98744.00;2087060;28;20044;-45
2023/05/19 01:31:43;;;;;;;0.80;0.77;;;;;;;18.79;64.60;98738.44;2088499;28;20044;-45
2023/05/19 01:32:45;;;;;;;0.68;0.68;;;;;;;18.82;64.32;98740.72;2089739;28;20068;-47
2023/05/19 01:33:49;;;;;;;1.40;0.57;;;;;;;18.83;64.58;98741.53;2081625;28;20079;-48
2023/05/19 01:34:52;;;;;;;0.75;0.60;;;;;;;18.84;64.34;98745.91;2085328;28;20190;-47
2023/05/19 01:35:56;;;;;;;0.52;0.52;;;;;;;18.83;64.41;98747.72;2089323;28;20179;-51
2023/05/19 01:36:59;;;;;;;0.90;0.80;;;;;;;18.84;64.39;98743.22;2087556;28;20048;-51
2023/05/19 01:38:03;;;;;;;0.70;0.70;;;;;;;18.83;64.63;98746.91;2087563;28;20060;-52
2023/05/19 01:39:04;;;;;;;0.65;0.63;;;;;;;18.83;64.17;98747.72;2082944;28;20081;-49
2023/05/19 01:40:07;;;;;;;0.52;0.52;;;;;;;18.85;64.45;98745.69;2084336;28;20056;-47
2023/05/19 01:41:10;;;;;;;0.70;0.70;;;;;;;18.83;64.58;98753.09;2086165;28;20063;-52
2023/05/19 01:42:13;;;;;;;0.75;0.65;;;;;;;18.84;64.55;98752.09;2087050;28;20053;-47
2023/05/19 01:43:17;;;;;;;0.88;0.60;;;;;;;18.82;64.45;98751.47;2080650;28;20041;-47
2023/05/19 01:44:18;;;;;;;0.90;0.60;;;;;;;18.84;64.11;98748.59;2086466;28;20200;-50
2023/05/19 01:45:20;;;;;;;;;;;;;;;18.75;64.34;98750.63;2088419;28;20057;-46
2023/05/19 01:46:23;;;;;;;0.38;0.38;;;;;;;18.79;64.73;98751.88;2085822;28;19928;-46
2023/05/19 01:47:25;;;;;;;0.52;0.40;;;;;;;18.80;64.24;98752.69;2087650;28;20102;-49
2023/05/19 01:48:26;;;;;;;0.82;0.82;;;;;;;18.82;64.05;98751.47;2089057;28;20040;-48
2023/05/19 01:49:27;;;;;;;;;;;;;;;18.74;64.66;98752.47;2087900;28;20052;-46
2023/05/19 01:50:29;;;;;;;1.23;0.82;;;;;;;18.77;64.58;98753.91;2078842;28;19963;-51
2023/05/19 01:51:31;;;;;;;0.90;0.77;;;;;;;18.79;64.33;98753.72;2088633;28;20083;-47
2023/05/19 01:52:32;;;;;;;1.13;0.73;;;;;;;18.82;64.38;98756.00;2087932;28;20101;-49
2023/05/19 01:53:34;;;;;;;0.68;0.68;;;;;;;18.84;64.31;98757.47;2086293;28;20068;-48
2023/05/19 01:54:34;;;;;;;0.95;0.80;;;;;;;18.83;64.05;98752.28;2087724;28;20041;-51
2023/05/19 01:55:42;;;;;;;;;;;;;;;18.74;64.32;98755.16;2086235;28;20058;-49
2023/05/19 01:56:51;;;;;;;1.15;0.77;;;;;;;18.76;64.21;98752.28;2086686;28;19928;-47
2023/05/19 01:58:06;;;;;;;0.98;0.73;;;;;;;18.77;64.46;98753.91;2083950;28;20139;-50
2023/05/19 01:59:26;;;;;;;1.05;0.70;;;;;;;18.78;64.54;98754.75;2082564;28;20201;-50
2023/05/19 02:00:43;;;;;;;0.68;0.68;;;;;;;18.80;64.27;98750.00;2086311;28;20048;-51
2023/05/19 02:01:52;;;;;;;1.08;0.88;;;;;;;18.81;64.54;98760.56;2087016;28;20041;-50
2023/05/19 02:03:08;;;;;;;0.70;0.60;;;;;;;18.81;64.23;98755.19;2084202;28;20045;-45
2023/05/19 02:04:20;;;;;;;0.60;0.60;;;;;;;18.76;64.31;98757.66;2089263;28;20662;-46
2023/05/19 02:05:29;;;;;;;1.35;0.80;;;;;;;18.80;64.59;98755.38;2086557;28;20122;-45
2023/05/19 02:06:40;;;;;;;1.13;0.75;;;;;;;18.77;64.44;98751.22;2082152;28;20412;-49
2023/05/19 02:07:48;;;;;;;1.33;0.90;;;;;;;18.81;64.29;98749.00;2083834;28;20048;-48
2023/05/19 02:08:56;;;;;;;0.60;0.60;;;;;;;18.82;64.22;98746.09;2080604;28;20056;-48
2023/05/19 02:10:04;;;;;;;0.43;0.43;;;;;;;18.81;64.36;98747.13;2080096;28;20111;-50
2023/05/19 02:11:16;;;;;;;1.58;0.80;;;;;;;18.81;64.31;98746.31;2086137;28;20444;-51
2023/05/19 02:12:23;;;;;;;1.45;0.90;;;;;;;18.79;64.23;98749.19;2082516;28;20152;-45
2023/05/19 02:13:30;;;;;;;1.85;0.70;;;;;;;18.80;64.07;98740.06;2081815;28;20129;-52
2023/05/19 02:14:36;;;;;;;1.08;0.60;;;;;;;18.82;64.40;98740.72;2086553;28;20091;-48
2023/05/19 02:15:40;;;;;;;0.63;0.60;;;;;;;18.84;63.96;98743.22;2086287;28;20102;-47
2023/05/19 02:16:47;;;;;;;0.52;0.50;;;;;;;18.83;64.22;98742.34;2086376;28;20052;-50
2023/05/19 02:17:50;;;;;;;1.15;0.75;;;;;;;18.82;64.20;98746.09;2085222;28;20045;-48
2023/05/19 02:18:52;;;;;;;0.98;0.52;;;;;;;18.82;64.19;98751.47;2086113;28;20091;-47
2023/05/19 02:19:53;;;;;;;0.70;0.70;;;;;;;18.82;64.24;98748.78;2084742;28;20064;-48
2023/05/19 02:20:53;;;;;;;;;;;;;;;18.72;64.28;98745.59;2088030;28;20052;-47
2023/05/19 02:21:56;;;;;;;0.57;0.57;;;;;;;18.73;64.36;98747.28;2086580;28;19936;-51
2023/05/19 02:22:56;;;;;;;0.50;0.50;;;;;;;18.77;64.21;98745.84;2082073;28;20052;-47
2023/05/19 02:23:58;;;;;;;;;;;;;;;18.70;64.48;98745.00;2088339;28;20139;-48
2023/05/19 02:24:59;;;;;;;1.05;0.68;;;;;;;18.73;64.37;98747.28;2084064;28;19932;-52
2023/05/19 02:26:00;;;;;;;;;;;;;;;18.67;64.76;98756.16;2080481;28;20052;-50
2023/05/19 02:27:01;;;;;;;;;;;;;;;18.63;64.75;98747.63;2084648;28;19921;-47
2023/05/19 02:28:03;;;;;;;0.98;0.70;;;;;;;18.67;64.52;98745.41;2086927;28;20361;-47
2023/05/19 02:29:03;;;;;;;2.22;1.02;;;;;;;18.73;64.42;98752.66;2080889;28;20064;-49
2023/05/19 02:30:05;;;;;;;;;;;;;;;18.66;64.57;98741.03;2081080;28;21293;-53
2023/05/19 02:31:07;;;;;;;0.50;0.50;;;;;;;18.73;64.33;98747.28;2082257;28;19975;-50
2023/05/19 02:32:11;;;;;;;0.65;0.50;;;;;;;18.74;64.17;98743.56;2085065;28;20753;-46
2023/05/19 02:33:11;;;;;;;0.90;0.52;;;;;;;18.77;64.25;98745.84;2086401;28;20045;-48
2023/05/19 02:34:13;;;;;;;;;;;;;;;18.67;64.41;98746.22;2087202;28;20044;-49
2023/05/19 02:35:13;;;;;;;0.95;0.50;;;;;;;18.74;64.40;98746.25;2083026;28;19924;-50
2023/05/19 02:36:15;;;;;;;;;;;;;;;18.66;64.59;98747.22;2085630;28;20049;-51
2023/05/19 02:37:16;;;;;;;0.73;0.70;;;;;;;18.71;64.38;98743.94;2079465;28;19925;-47
2023/05/19 02:38:18;;;;;;;1.13;0.90;;;;;;;18.73;64.32;98739.22;2088799;28;20054;-53
2023/05/19 02:39:18;;;;;;;0.63;0.50;;;;;;;18.75;64.31;98740.69;2088936;28;20048;-47
2023/05/19 02:40:20;;;;;;;;;;;;;;;18.67;64.49;98748.09;2082727;28;20045;-47
2023/05/19 02:41:21;;;;;;;0.90;0.77;;;;;;;18.70;64.53;98742.31;2078457;28;19973;-48
2023/05/19 02:42:22;;;;;;;1.02;0.77;;;;;;;18.74;64.27;98743.56;2082070;28;20491;-50
2023/05/19 02:43:23;;;;;;;1.20;0.77;;;;;;;18.77;63.96;98740.47;2083744;28;20053;-47
2023/05/19 02:44:24;;;;;;;;;;;;;;;18.69;64.35;98740.63;2086527;28;20499;-46
2023/05/19 02:45:27;;;;;;;1.00;0.40;;;;;;;18.71;64.16;98739.41;2086319;28;19920;-47
2023/05/19 02:46:29;;;;;;;0.82;0.68;;;;;;;18.73;64.31;98736.53;2088786;28;20083;-48
2023/05/19 02:47:31;;;;;;;1.02;0.88;;;;;;;18.74;64.41;98740.88;2085493;28;20131;-47
2023/05/19 02:48:32;;;;;;;0.63;0.63;;;;;;;18.77;64.08;98735.09;2086691;28;21419;-46
2023/05/19 02:49:34;;;;;;;1.20;0.77;;;;;;;18.79;64.08;98738.44;2077062;28;20403;-47
2023/05/19 02:50:36;;;;;;;0.38;0.30;;;;;;;18.80;63.90;98740.06;2084257;28;20136;-47
2023/05/19 02:51:37;;;;;;;2.00;0.80;;;;;;;18.77;64.23;98734.28;2086906;28;20057;-47
2023/05/19 02:52:38;;;;;;;;;;;;;;;18.69;64.23;98735.25;2084863;28;20048;-46
2023/05/19 02:53:39;;;;;;;0.68;0.68;;;;;;;18.70;64.34;98731.56;2083807;28;20259;-47
2023/05/19 02:54:40;;;;;;;;;;;;;;;18.65;64.41;98739.38;2083963;28;20119;-47
2023/05/19 02:55:41;;;;;;;1.67;0.70;;;;;;;18.68;64.28;98730.94;2087408;28;19981;-46
2023/05/19 02:56:43;;;;;;;;;;;;;;;18.64;64.50;98733.19;2079657;28;20055;-48
2023/05/19 02:57:43;;;;;;;;;;;;;;;18.60;64.91;98725.72;2083272;28;20631;-47
2023/05/19 02:58:45;;;;;;;1.47;0.90;;;;;;;18.66;64.66;98732.97;2086291;28;19982;-47
2023/05/19 02:59:45;;;;;;;0.95;0.60;;;;;;;18.68;64.22;98734.44;2087302;28;20522;-48
2023/05/19 03:00:47;;;;;;;;;;;;;;;18.63;64.68;98736.06;2086409;28;20052;-48
2023/05/19 03:01:47;;;;;;;0.77;0.60;;;;;;;18.64;64.44;98725.13;2086720;28;21817;-47
2023/05/19 03:02:51;;;;;;;;;;;;;;;18.59;64.81;98730.28;2088572;28;20052;-47
2023/05/19 03:03:52;;;;;;;0.82;0.80;;;;;;;18.67;64.45;98729.28;2086950;28;19924;-50
2023/05/19 03:04:54;;;;;;;;;;;;;;;18.60;64.67;98726.56;2080821;28;20045;-47
2023/05/19 03:05:54;;;;;;;;;;;;;;;18.58;64.76;98727.78;2083822;28;19924;-48
2023/05/19 03:06:56;;;;;;;0.63;0.50;;;;;;;18.63;64.72;98723.47;2086720;28;19963;-47
2023/05/19 03:07:57;;;;;;;1.00;0.95;;;;;;;18.68;64.54;98726.38;2085676;28;20052;-47
2023/05/19 03:08:58;;;;;;;;;;;;;;;18.65;64.16;98731.34;2088705;28;20049;-47
2023/05/19 03:10:02;;;;;;;1.45;0.77;;;;;;;18.67;64.47;98727.41;2084915;28;19969;-47
2023/05/19 03:11:04;;;;;;;0.73;0.73;;;;;;;18.69;64.48;98730.75;2079196;28;20059;-47
2023/05/19 03:12:06;;;;;;;0.95;0.80;;;;;;;18.71;64.26;98733.22;2079598;28;20060;-49
2023/05/19 03:13:07;;;;;;;0.88;0.60;;;;;;;18.73;64.06;98728.47;2078272;28;20059;-47
2023/05/19 03:14:08;;;;;;;0.57;0.50;;;;;;;18.73;64.26;98731.16;2079155;28;20456;-47
2023/05/19 03:15:11;;;;;;;;;;;;;;;18.66;64.33;98731.13;2086089;28;20102;-52
2023/05/19 03:16:12;;;;;;;0.75;0.70;;;;;;;18.68;64.19;98728.25;2085392;28;19944;-51
2023/05/19 03:17:14;;;;;;;;;;;;;;;18.63;64.79;98736.06;2084018;28;20064;-52
2023/05/19 03:18:16;;;;;;;1.02;0.68;;;;;;;18.66;64.43;98731.13;2086192;28;19920;-48
2023/05/19 03:19:18;;;;;;;0.55;0.55;;;;;;;18.69;64.39;98735.25;2080344;28;20053;-50
2023/05/19 03:20:18;;;;;;;1.23;0.77;;;;;;;18.71;64.17;98727.84;2086631;28;20049;-46
2023/05/19 03:21:20;;;;;;;;;;;;;;;18.62;64.39;98729.06;2082172;28;20124;-49
2023/05/19 03:22:20;;;;;;;0.75;0.60;;;;;;;18.64;64.64;98729.69;2078856;28;19935;-51
2023/05/19 03:23:22;;;;;;;1.10;0.50;;;;;;;18.69;64.13;98730.75;2084600;28;20044;-47
2023/05/19 03:24:23;;;;;;;0.85;0.73;;;;;;;18.72;64.15;98724.09;2085562;28;20438;-49
2023/05/19 03:25:24;;;;;;;;;;;;;;;18.64;64.29;98729.69;2082900;28;20095;-48
2023/05/19 03:26:25;;;;;;;0.88;0.50;;;;;;;18.64;64.61;98722.44;2084353;28;19928;-50
2023/05/19 03:27:27;;;;;;;;;;;;;;;18.61;64.54;98727.38;2080057;28;20135;-50
2023/05/19 03:28:27;;;;;;;0.82;0.63;;;;;;;18.63;64.59;98725.31;2078157;28;19925;-48
2023/05/19 03:29:29;;;;;;;;;;;;;;;18.58;64.57;98731.28;2087432;28;20112;-51
2023/05/19 03:30:30;;;;;;;1.48;0.70;;;;;;;18.63;64.50;98725.31;2078116;28;20344;-50
2023/05/19 03:31:31;;;;;;;;;;;;;;;18.58;64.42;98730.47;2080068;28;20103;-47
2023/05/19 03:32:32;;;;;;;1.23;0.77;;;;;;;18.61;64.54;98727.38;2078495;28;19957;-47
2023/05/19 03:33:35;;;;;;;;;;;;;;;18.57;64.76;98731.50;2085145;28;20623;-47
2023/05/19 03:34:36;;;;;;;0.77;0.70;;;;;;;18.62;64.55;98737.09;2085903;28;20592;-50
2023/05/19 03:35:37;;;;;;;;;;;;;;;18.56;64.61;98732.53;2085622;28;20064;-47
2023/05/19 03:36:39;;;;;;;2.72;0.65;;;;;;;18.59;64.58;98738.34;2084656;28;19968;-50
2023/05/19 03:37:40;;;;;;;0.70;0.70;;;;;;;18.65;64.21;98734.00;2084344;28;20476;-47
2023/05/19 03:38:41;;;;;;;;;;;;;;;18.61;64.65;98730.06;2086853;28;20057;-50
2023/05/19 03:39:42;;;;;;;0.82;0.50;;;;;;;18.63;64.29;98730.69;2084659;28;20371;-49
2023/05/19 03:40:43;;;;;;;;;;;;;;;18.58;64.33;98728.59;2082899;28;20041;-49
2023/05/19 03:41:44;;;;;;;;;;;;;;;18.53;64.73;98731.91;2082547;28;19931;-45
2023/05/19 03:42:45;;;;;;;0.70;0.70;;;;;;;18.59;64.40;98721.41;2080736;28;19925;-47
2023/05/19 03:43:46;;;;;;;0.63;0.63;;;;;;;18.65;64.47;98725.97;2079845;28;20057;-48
2023/05/19 03:44:48;;;;;;;;;;;;;;;18.60;64.41;98723.03;2081075;28;20113;-49
2023/05/19 03:45:48;;;;;;;1.40;0.63;;;;;;;18.63;64.25;98731.50;2081848;28;20006;-45
2023/05/19 03:46:50;;;;;;;;;;;;;;;18.58;64.47;98722.41;2086358;28;20063;-48
2023/05/19 03:47:50;;;;;;;2.17;0.40;;;;;;;18.62;64.44;98723.69;2087017;28;19974;-48
2023/05/19 03:48:53;;;;;;;0.90;0.70;;;;;;;18.65;64.27;98724.09;2083220;28;20074;-51
2023/05/19 03:49:54;;;;;;;0.77;0.77;;;;;;;18.67;64.14;98730.09;2077086;28;20097;-47
2023/05/19 03:50:56;;;;;;;1.55;0.82;;;;;;;18.68;64.22;98729.06;2085401;28;20076;-47
2023/05/19 03:51:57;;;;;;;0.73;0.50;;;;;;;18.70;64.26;98723.50;2086289;28;20238;-46
2023/05/19 03:52:58;;;;;;;;;;;;;;;18.61;64.36;98728.22;2088581;28;20049;-47
2023/05/19 03:53:59;;;;;;;0.90;0.82;;;;;;;18.64;64.38;98729.69;2084863;28;19924;-45
2023/05/19 03:55:00;;;;;;;;;;;;;;;18.57;64.46;98731.50;2087307;28;20697;-50
2023/05/19 03:56:01;;;;;;;1.25;0.98;;;;;;;18.61;64.30;98728.22;2083554;28;19932;-47
2023/05/19 03:57:03;;;;;;;;;;;;;;;18.55;64.60;98734.38;2074068;28;20052;-46
2023/05/19 03:58:05;;;;;;;1.75;1.00;;;;;;;18.60;64.59;98728.41;2079103;28;19928;-48
2023/05/19 03:59:06;;;;;;;0.88;0.80;;;;;;;18.64;64.21;98735.06;2083175;28;20056;-46
2023/05/19 04:00:09;;;;;;;1.63;1.02;;;;;;;18.67;64.26;98729.28;2085949;28;20052;-47
2023/05/19 04:01:11;;;;;;;1.80;0.90;;;;;;;18.68;63.88;98723.69;2083267;28;20075;-47
2023/05/19 04:02:12;;;;;;;1.40;0.82;;;;;;;18.67;64.11;98727.41;2083270;28;20079;-50
2023/05/19 04:03:13;;;;;;;;;;;;;;;18.59;64.43;98727.59;2084769;28;20110;-49
2023/05/19 04:04:15;;;;;;;0.52;0.52;;;;;;;18.62;64.32;98729.06;2085467;28;19950;-47
2023/05/19 04:05:17;;;;;;;1.02;0.85;;;;;;;18.66;64.20;98728.44;2082841;28;20121;-46
2023/05/19 04:06:18;;;;;;;1.58;0.60;;;;;;;18.68;64.21;98728.25;2078976;28;20060;-47
2023/05/19 04:07:19;;;;;;;;;;;;;;;18.59;64.37;98727.59;2086783;28;20098;-48
2023/05/19 04:08:20;;;;;;;2.05;1.08;;;;;;;18.62;64.46;98729.88;2079443;28;19925;-47
2023/05/19 04:09:22;;;;;;;;;;;;;;;18.58;64.44;98730.47;2084872;28;20639;-48
2023/05/19 04:10:23;;;;;;;1.08;0.80;;;;;;;18.62;64.31;98729.06;2083346;28;19967;-48
2023/05/19 04:11:24;;;;;;;;;;;;;;;18.56;64.70;98724.50;2080820;28;20052;-49
2023/05/19 04:12:25;;;;;;;0.80;0.80;;;;;;;18.58;64.48;98728.59;2079341;28;20022;-48
2023/05/19 04:13:27;;;;;;;;;;;;;;;18.55;64.28;98731.69;2079113;28;20522;-48
2023/05/19 04:14:27;;;;;;;0.88;0.88;;;;;;;18.57;64.33;98729.66;2085671;28;19981;-48
2023/05/19 04:15:29;;;;;;;;;;;;;;;18.56;64.63;98727.19;2085076;28;20056;-46
2023/05/19 04:16:29;;;;;;;1.00;0.47;;;;;;;18.58;64.49;98723.22;2084271;28;20601;-49
2023/05/19 04:17:31;;;;;;;;;;;;;;;18.51;64.65;98731.28;2085899;28;20049;-46
2023/05/19 04:18:32;;;;;;;0.82;0.65;;;;;;;18.59;64.57;98729.47;2083457;28;22161;-49
2023/05/19 04:19:34;;;;;;;;;;;;;;;18.53;64.41;98737.28;2083617;28;20053;-47
2023/05/19 04:20:35;;;;;;;0.90;0.70;;;;;;;18.59;64.31;98726.78;2086005;28;19929;-46
2023/05/19 04:21:37;;;;;;;;;;;;;;;18.53;64.46;98731.91;2087157;28;20797;-46
2023/05/19 04:22:37;;;;;;;1.85;1.17;;;;;;;18.59;64.56;98735.66;2084196;28;19953;-46
2023/05/19 04:23:39;;;;;;;;;;;;;;;18.52;64.41;98740.16;2086962;28;21089;-45
2023/05/19 04:24:39;;;;;;;0.73;0.73;;;;;;;18.57;64.48;98735.00;2077021;28;21374;-45
2023/05/19 04:25:41;;;;;;;0.77;0.63;;;;;;;18.63;64.25;98742.25;2085223;28;20048;-47
2023/05/19 04:26:44;;;;;;;1.33;0.70;;;;;;;18.65;64.08;98728.66;2081160;28;20056;-47
2023/05/19 04:27:47;;;;;;;1.55;0.95;;;;;;;18.68;64.03;98733.59;2084154;28;20057;-45
2023/05/19 04:28:47;;;;;;;0.60;0.60;;;;;;;18.70;64.09;98734.25;2083563;28;20973;-48
2023/05/19 04:29:49;;;;;;;;;;;;;;;18.60;64.22;98739.97;2079889;28;20052;-46
2023/05/19 04:30:50;;;;;;;2.08;0.70;;;;;;;18.61;64.29;98735.44;2083204;28;19925;-47
2023/05/19 04:31:52;;;;;;;1.08;0.80;;;;;;;18.63;64.43;98742.25;2079953;28;20055;-47
2023/05/19 04:32:52;;;;;;;0.88;0.85;;;;;;;18.63;64.35;98738.75;2082753;28;20060;-48
2023/05/19 04:33:54;;;;;;;;;;;;;;;18.57;64.16;98743.06;2082913;28;20056;-46
2023/05/19 04:34:57;;;;;;;1.05;0.95;;;;;;;18.60;63.97;98744.53;2082175;28;21422;-49
2023/05/19 04:36:04;;;;;;;1.52;0.70;;;;;;;18.61;64.44;98749.72;2076576;28;20063;-46
2023/05/19 04:37:05;;;;;;;1.23;0.82;;;;;;;18.63;64.27;98742.25;2083594;28;20047;-47
2023/05/19 04:38:08;;;;;;;0.70;0.63;;;;;;;18.65;64.16;98744.75;2079837;28;20231;-48
2023/05/19 04:39:11;;;;;;;0.98;0.90;;;;;;;18.65;63.95;98734.84;2084509;28;20395;-45
2023/05/19 04:40:13;;;;;;;1.33;0.70;;;;;;;18.66;64.07;98746.41;2087277;28;20103;-48
2023/05/19 04:41:15;;;;;;;1.02;0.90;;;;;;;18.68;64.06;98738.97;2086716;28;20040;-47
2023/05/19 04:42:18;;;;;;;1.05;0.85;;;;;;;18.68;63.83;98747.03;2084742;28;20163;-48
2023/05/19 04:43:21;;;;;;;0.65;0.60;;;;;;;18.66;64.07;98744.53;2085169;28;20045;-49
2023/05/19 04:44:22;;;;;;;0.40;0.40;;;;;;;18.65;64.10;98745.59;2088525;28;20053;-45
2023/05/19 04:45:24;;;;;;;0.93;0.70;;;;;;;18.66;64.00;98743.72;2086802;28;20044;-46
2023/05/19 04:46:28;;;;;;;1.20;0.75;;;;;;;18.66;64.01;98746.41;2085955;28;20057;-47
2023/05/19 04:47:29;;;;;;;1.00;0.75;;;;;;;18.66;63.97;98749.91;2085411;28;20076;-46
2023/05/19 04:48:32;;;;;;;;;;;;;;;18.56;64.18;98746.81;2089285;28;20048;-45
2023/05/19 04:49:32;;;;;;;0.98;0.90;;;;;;;18.58;64.05;98742.03;2087808;28;20681;-49
2023/05/19 04:50:37;;;;;;;;;;;;;;;18.50;64.48;98752.97;2087842;28;20056;-47
2023/05/19 04:51:40;;;;;;;0.68;0.65;;;;;;;18.58;64.17;98736.66;2085312;28;20591;-47
2023/05/19 04:52:44;;;;;;;0.75;0.52;;;;;;;18.61;64.21;98743.50;2081246;28;20071;-45
2023/05/19 04:53:44;;;;;;;0.70;0.70;;;;;;;18.62;64.34;98737.09;2084107;28;20052;-49
2023/05/19 04:54:46;;;;;;;;;;;;;;;18.54;64.40;98744.31;2089163;28;20629;-46
2023/05/19 04:55:47;;;;;;;0.95;0.60;;;;;;;18.57;64.23;98742.25;2089190;28;19990;-47
2023/05/19 04:56:48;;;;;;;;;;;;;;;18.49;64.71;98741.38;2083213;28;20499;-46
2023/05/19 04:57:49;;;;;;;1.08;0.65;;;;;;;18.57;64.33;98747.63;2083824;28;19929;-48
2023/05/19 04:58:52;;;;;;;;;;;;;;;18.51;64.41;98741.19;2084400;28;20137;-46
2023/05/19 04:59:58;;;;;;;1.33;1.13;;;;;;;18.54;64.17;98738.94;2087448;28;19928;-47
2023/05/19 05:01:00;;;;;;;2.92;0.77;;;;;;;18.59;64.39;98735.66;2086671;28;20233;-47
2023/05/19 05:02:00;;;;;;;1.02;0.57;;;;;;;18.63;64.22;98741.44;2086571;28;20044;-47
2023/05/19 05:03:03;;;;;;;;;;;;;;;18.56;64.06;98737.91;2080911;28;20052;-47
2023/05/19 05:04:04;;;;;;;1.75;0.68;;;;;;;18.58;64.04;98733.97;2085151;28;19924;-47